sensor_id;sensor_type;location;lat;lon;timestamp;P1;durP1;ratioP1;P2;durP2;ratioP2
69795;SDS011;57073;45.650;9.612;2023-09-18T00:03:04;9.40;;;5.70;;
69795;SDS011;57073;45.650;9.612;2023-09-18T00:08:04;8.47;;;6.20;;
69795;SDS011;57073;45.650;9.612;2023-09-18T00:13:05;17.03;;;5.90;;
69795;SDS011;57073;45.650;9.612;2023-09-18T00:18:05;10.20;;;6.30;;
69795;SDS011;57073;45.650;9.612;2023-09-18T00:23:06;10.17;;;5.37;;
69795;SDS011;57073;45.650;9.612;2023-09-18T00:28:06;9.03;;;6.30;;
69795;SDS011;57073;45.650;9.612;2023-09-18T00:33:06;9.53;;;6.27;;
69795;SDS011;57073;45.650;9.612;2023-09-18T00:38:07;9.60;;;6.57;;
69795;SDS011;57073;45.650;9.612;2023-09-18T00:43:07;8.40;;;6.33;;
69795;SDS011;57073;45.650;9.612;2023-09-18T00:48:08;9.00;;;6.20;;
69795;SDS011;57073;45.650;9.612;2023-09-18T00:53:09;10.47;;;6.17;;
69795;SDS011;57073;45.650;9.612;2023-09-18T00:58:13;11.02;;;5.72;;
69795;SDS011;57073;45.650;9.612;2023-09-18T01:03:14;8.40;;;5.50;;
69795;SDS011;57073;45.650;9.612;2023-09-18T01:08:18;11.05;;;6.03;;
69795;SDS011;57073;45.650;9.612;2023-09-18T01:13:27;10.57;;;5.70;;
69795;SDS011;57073;45.650;9.612;2023-09-18T01:18:35;9.35;;;5.97;;
69795;SDS011;57073;45.650;9.612;2023-09-18T01:23:35;8.83;;;6.17;;
69795;SDS011;57073;45.650;9.612;2023-09-18T01:28:35;10.70;;;5.73;;
69795;SDS011;57073;45.650;9.612;2023-09-18T01:33:37;8.90;;;5.77;;
69795;SDS011;57073;45.650;9.612;2023-09-18T01:38:38;9.67;;;5.43;;
69795;SDS011;57073;45.650;9.612;2023-09-18T01:43:39;11.67;;;5.90;;
69795;SDS011;57073;45.650;9.612;2023-09-18T01:48:44;8.63;;;5.53;;
69795;SDS011;57073;45.650;9.612;2023-09-18T01:53:46;11.00;;;5.20;;
69795;SDS011;57073;45.650;9.612;2023-09-18T01:58:46;8.30;;;5.87;;
69795;SDS011;57073;45.650;9.612;2023-09-18T02:03:47;8.57;;;5.77;;
69795;SDS011;57073;45.650;9.612;2023-09-18T02:08:47;11.00;;;6.07;;
69795;SDS011;57073;45.650;9.612;2023-09-18T02:13:47;11.07;;;6.00;;
69795;SDS011;57073;45.650;9.612;2023-09-18T02:18:48;10.97;;;4.90;;
69795;SDS011;57073;45.650;9.612;2023-09-18T02:23:51;7.00;;;5.20;;
69795;SDS011;57073;45.650;9.612;2023-09-18T02:28:52;7.03;;;5.68;;
69795;SDS011;57073;45.650;9.612;2023-09-18T02:33:54;8.90;;;5.80;;
69795;SDS011;57073;45.650;9.612;2023-09-18T02:38:54;9.00;;;6.40;;
69795;SDS011;57073;45.650;9.612;2023-09-18T02:43:55;9.38;;;5.70;;
69795;SDS011;57073;45.650;9.612;2023-09-18T02:48:55;10.93;;;5.87;;
69795;SDS011;57073;45.650;9.612;2023-09-18T02:53:55;9.57;;;5.90;;
69795;SDS011;57073;45.650;9.612;2023-09-18T02:58:56;11.10;;;5.97;;
69795;SDS011;57073;45.650;9.612;2023-09-18T03:03:56;9.67;;;5.73;;
69795;SDS011;57073;45.650;9.612;2023-09-18T03:08:57;10.07;;;5.97;;
69795;SDS011;57073;45.650;9.612;2023-09-18T03:13:57;12.00;;;6.50;;
69795;SDS011;57073;45.650;9.612;2023-09-18T03:18:58;9.77;;;6.43;;
69795;SDS011;57073;45.650;9.612;2023-09-18T03:23:58;12.43;;;5.90;;
69795;SDS011;57073;45.650;9.612;2023-09-18T03:28:59;10.70;;;6.05;;
69795;SDS011;57073;45.650;9.612;2023-09-18T03:34:00;10.40;;;6.33;;
69795;SDS011;57073;45.650;9.612;2023-09-18T03:39:00;8.40;;;5.33;;
69795;SDS011;57073;45.650;9.612;2023-09-18T03:44:00;8.67;;;6.00;;
69795;SDS011;57073;45.650;9.612;2023-09-18T03:49:02;10.30;;;5.68;;
69795;SDS011;57073;45.650;9.612;2023-09-18T03:54:03;10.10;;;5.90;;
69795;SDS011;57073;45.650;9.612;2023-09-18T03:59:03;9.93;;;5.10;;
69795;SDS011;57073;45.650;9.612;2023-09-18T04:04:04;7.68;;;5.15;;
69795;SDS011;57073;45.650;9.612;2023-09-18T04:09:06;8.07;;;5.43;;
69795;SDS011;57073;45.650;9.612;2023-09-18T04:14:06;11.57;;;5.37;;
69795;SDS011;57073;45.650;9.612;2023-09-18T04:19:07;8.77;;;5.28;;
69795;SDS011;57073;45.650;9.612;2023-09-18T04:24:08;10.10;;;5.47;;
69795;SDS011;57073;45.650;9.612;2023-09-18T04:29:08;11.63;;;4.93;;
69795;SDS011;57073;45.650;9.612;2023-09-18T04:34:09;12.55;;;4.95;;
69795;SDS011;57073;45.650;9.612;2023-09-18T04:39:10;12.47;;;4.90;;
69795;SDS011;57073;45.650;9.612;2023-09-18T04:44:10;9.97;;;5.37;;
69795;SDS011;57073;45.650;9.612;2023-09-18T04:49:12;9.02;;;5.82;;
69795;SDS011;57073;45.650;9.612;2023-09-18T04:54:13;8.10;;;5.70;;
69795;SDS011;57073;45.650;9.612;2023-09-18T04:59:13;13.47;;;6.53;;
69795;SDS011;57073;45.650;9.612;2023-09-18T05:04:14;11.48;;;6.75;;
69795;SDS011;57073;45.650;9.612;2023-09-18T05:09:15;13.43;;;6.17;;
69795;SDS011;57073;45.650;9.612;2023-09-18T05:14:15;11.60;;;6.70;;
69795;SDS011;57073;45.650;9.612;2023-09-18T05:19:16;11.10;;;6.70;;
69795;SDS011;57073;45.650;9.612;2023-09-18T05:24:16;11.63;;;6.97;;
69795;SDS011;57073;45.650;9.612;2023-09-18T05:29:16;11.33;;;6.40;;
69795;SDS011;57073;45.650;9.612;2023-09-18T05:34:17;11.03;;;6.50;;
69795;SDS011;57073;45.650;9.612;2023-09-18T05:39:17;13.10;;;6.80;;
69795;SDS011;57073;45.650;9.612;2023-09-18T05:44:18;12.53;;;6.53;;
69795;SDS011;57073;45.650;9.612;2023-09-18T05:49:18;11.23;;;6.13;;
69795;SDS011;57073;45.650;9.612;2023-09-18T05:54:19;12.80;;;5.83;;
69795;SDS011;57073;45.650;9.612;2023-09-18T05:59:19;11.10;;;5.82;;
69795;SDS011;57073;45.650;9.612;2023-09-18T06:04:20;12.13;;;6.70;;
69795;SDS011;57073;45.650;9.612;2023-09-18T06:09:21;12.03;;;6.90;;
69795;SDS011;57073;45.650;9.612;2023-09-18T06:14:22;11.48;;;6.82;;
69795;SDS011;57073;45.650;9.612;2023-09-18T06:19:22;11.20;;;6.63;;
69795;SDS011;57073;45.650;9.612;2023-09-18T06:24:23;14.13;;;7.30;;
69795;SDS011;57073;45.650;9.612;2023-09-18T06:29:23;16.80;;;7.53;;
69795;SDS011;57073;45.650;9.612;2023-09-18T06:34:24;13.37;;;7.17;;
69795;SDS011;57073;45.650;9.612;2023-09-18T06:39:25;14.73;;;7.40;;
69795;SDS011;57073;45.650;9.612;2023-09-18T06:44:26;13.00;;;7.17;;
69795;SDS011;57073;45.650;9.612;2023-09-18T06:49:26;11.63;;;7.00;;
69795;SDS011;57073;45.650;9.612;2023-09-18T06:54:27;12.35;;;7.13;;
69795;SDS011;57073;45.650;9.612;2023-09-18T06:59:28;16.07;;;8.07;;
69795;SDS011;57073;45.650;9.612;2023-09-18T07:04:29;13.75;;;7.72;;
69795;SDS011;57073;45.650;9.612;2023-09-18T07:09:30;14.53;;;8.27;;
69795;SDS011;57073;45.650;9.612;2023-09-18T07:14:30;17.70;;;8.43;;
69795;SDS011;57073;45.650;9.612;2023-09-18T07:19:30;12.67;;;8.43;;
69795;SDS011;57073;45.650;9.612;2023-09-18T07:24:32;18.00;;;8.60;;
69795;SDS011;57073;45.650;9.612;2023-09-18T07:29:32;15.93;;;8.83;;
69795;SDS011;57073;45.650;9.612;2023-09-18T07:34:34;16.50;;;10.00;;
69795;SDS011;57073;45.650;9.612;2023-09-18T07:39:35;18.48;;;10.50;;
69795;SDS011;57073;45.650;9.612;2023-09-18T07:44:36;19.70;;;11.73;;
69795;SDS011;57073;45.650;9.612;2023-09-18T07:49:36;16.83;;;10.20;;
69795;SDS011;57073;45.650;9.612;2023-09-18T07:54:36;19.53;;;10.10;;
69795;SDS011;57073;45.650;9.612;2023-09-18T07:59:37;20.03;;;9.93;;
69795;SDS011;57073;45.650;9.612;2023-09-18T08:04:38;18.98;;;9.88;;
69795;SDS011;57073;45.650;9.612;2023-09-18T08:09:39;21.67;;;10.20;;
69795;SDS011;57073;45.650;9.612;2023-09-18T08:14:40;23.40;;;10.47;;
69795;SDS011;57073;45.650;9.612;2023-09-18T08:19:40;19.53;;;10.57;;
69795;SDS011;57073;45.650;9.612;2023-09-18T08:24:40;22.93;;;11.87;;
69795;SDS011;57073;45.650;9.612;2023-09-18T08:29:42;21.38;;;11.18;;
69795;SDS011;57073;45.650;9.612;2023-09-18T08:34:43;19.23;;;11.70;;
69795;SDS011;57073;45.650;9.612;2023-09-18T08:39:43;19.40;;;12.27;;
69795;SDS011;57073;45.650;9.612;2023-09-18T08:44:44;24.07;;;13.10;;
69795;SDS011;57073;45.650;9.612;2023-09-18T08:49:48;21.90;;;13.43;;
69795;SDS011;57073;45.650;9.612;2023-09-18T08:54:49;25.42;;;13.85;;
69795;SDS011;57073;45.650;9.612;2023-09-18T08:59:51;24.27;;;13.77;;
69795;SDS011;57073;45.650;9.612;2023-09-18T09:04:54;25.43;;;13.33;;
69795;SDS011;57073;45.650;9.612;2023-09-18T09:09:54;26.13;;;13.60;;
69795;SDS011;57073;45.650;9.612;2023-09-18T09:15:01;23.00;;;13.73;;
69795;SDS011;57073;45.650;9.612;2023-09-18T09:20:10;24.17;;;13.15;;
69795;SDS011;57073;45.650;9.612;2023-09-18T09:25:25;22.05;;;13.48;;
69795;SDS011;57073;45.650;9.612;2023-09-18T09:30:27;22.57;;;11.77;;
69795;SDS011;57073;45.650;9.612;2023-09-18T09:35:29;21.73;;;12.85;;
69795;SDS011;57073;45.650;9.612;2023-09-18T09:40:32;36.67;;;12.47;;
69795;SDS011;57073;45.650;9.612;2023-09-18T09:45:33;19.40;;;12.63;;
69795;SDS011;57073;45.650;9.612;2023-09-18T09:50:46;19.87;;;12.07;;
69795;SDS011;57073;45.650;9.612;2023-09-18T09:55:53;23.27;;;13.25;;
69795;SDS011;57073;45.650;9.612;2023-09-18T10:00:55;23.15;;;13.68;;
69795;SDS011;57073;45.650;9.612;2023-09-18T10:05:59;28.90;;;14.20;;
69795;SDS011;57073;45.650;9.612;2023-09-18T10:11:05;21.42;;;13.77;;
69795;SDS011;57073;45.650;9.612;2023-09-18T10:16:08;27.98;;;14.65;;
69795;SDS011;57073;45.650;9.612;2023-09-18T10:21:14;28.93;;;15.07;;
69795;SDS011;57073;45.650;9.612;2023-09-18T10:26:16;29.40;;;15.07;;
69795;SDS011;57073;45.650;9.612;2023-09-18T10:31:26;24.50;;;14.77;;
69795;SDS011;57073;45.650;9.612;2023-09-18T10:36:28;23.37;;;13.60;;
69795;SDS011;57073;45.650;9.612;2023-09-18T10:41:29;20.77;;;13.45;;
69795;SDS011;57073;45.650;9.612;2023-09-18T10:46:30;21.07;;;12.77;;
69795;SDS011;57073;45.650;9.612;2023-09-18T10:51:32;21.23;;;11.35;;
69795;SDS011;57073;45.650;9.612;2023-09-18T10:56:38;17.13;;;11.03;;
69795;SDS011;57073;45.650;9.612;2023-09-18T11:01:39;21.67;;;11.40;;
69795;SDS011;57073;45.650;9.612;2023-09-18T11:12:19;16.45;;;11.35;;
69795;SDS011;57073;45.650;9.612;2023-09-18T11:22:31;20.38;;;10.95;;
69795;SDS011;57073;45.650;9.612;2023-09-18T11:27:42;22.27;;;10.33;;
69795;SDS011;57073;45.650;9.612;2023-09-18T11:32:54;21.37;;;12.13;;
69795;SDS011;57073;45.650;9.612;2023-09-18T11:38:05;20.85;;;11.88;;
69795;SDS011;57073;45.650;9.612;2023-09-18T11:43:22;23.00;;;12.93;;
69795;SDS011;57073;45.650;9.612;2023-09-18T11:48:26;21.53;;;12.97;;
69795;SDS011;57073;45.650;9.612;2023-09-18T11:53:29;20.75;;;12.18;;
69795;SDS011;57073;45.650;9.612;2023-09-18T11:58:45;19.23;;;11.83;;
69795;SDS011;57073;45.650;9.612;2023-09-18T12:03:46;20.60;;;12.85;;
69795;SDS011;57073;45.650;9.612;2023-09-18T12:08:53;20.50;;;13.68;;
69795;SDS011;57073;45.650;9.612;2023-09-18T12:13:54;22.10;;;13.03;;
69795;SDS011;57073;45.650;9.612;2023-09-18T12:18:54;20.57;;;12.23;;
69795;SDS011;57073;45.650;9.612;2023-09-18T12:23:54;23.77;;;11.37;;
69795;SDS011;57073;45.650;9.612;2023-09-18T12:28:55;22.23;;;11.73;;
69795;SDS011;57073;45.650;9.612;2023-09-18T12:33:55;16.37;;;11.80;;
69795;SDS011;57073;45.650;9.612;2023-09-18T12:38:56;17.67;;;12.23;;
69795;SDS011;57073;45.650;9.612;2023-09-18T12:44:05;20.60;;;12.15;;
69795;SDS011;57073;45.650;9.612;2023-09-18T12:49:19;19.67;;;12.68;;
69795;SDS011;57073;45.650;9.612;2023-09-18T12:54:19;18.50;;;12.03;;
69795;SDS011;57073;45.650;9.612;2023-09-18T12:59:20;24.87;;;12.37;;
69795;SDS011;57073;45.650;9.612;2023-09-18T13:04:20;24.97;;;13.07;;
69795;SDS011;57073;45.650;9.612;2023-09-18T13:09:22;23.05;;;12.82;;
69795;SDS011;57073;45.650;9.612;2023-09-18T13:14:23;21.33;;;12.55;;
69795;SDS011;57073;45.650;9.612;2023-09-18T13:19:24;23.70;;;12.47;;
69795;SDS011;57073;45.650;9.612;2023-09-18T13:24:28;22.93;;;12.27;;
69795;SDS011;57073;45.650;9.612;2023-09-18T13:29:30;21.20;;;12.63;;
69795;SDS011;57073;45.650;9.612;2023-09-18T13:34:30;26.63;;;13.73;;
69795;SDS011;57073;45.650;9.612;2023-09-18T13:39:31;24.50;;;12.55;;
69795;SDS011;57073;45.650;9.612;2023-09-18T13:44:31;23.20;;;11.87;;
69795;SDS011;57073;45.650;9.612;2023-09-18T13:49:32;26.97;;;13.13;;
69795;SDS011;57073;45.650;9.612;2023-09-18T13:54:32;26.93;;;15.30;;
69795;SDS011;57073;45.650;9.612;2023-09-18T13:59:32;28.57;;;16.10;;
69795;SDS011;57073;45.650;9.612;2023-09-18T14:04:33;26.60;;;16.60;;
69795;SDS011;57073;45.650;9.612;2023-09-18T14:09:33;25.10;;;15.13;;
69795;SDS011;57073;45.650;9.612;2023-09-18T14:14:34;29.27;;;16.13;;
69795;SDS011;57073;45.650;9.612;2023-09-18T14:19:35;26.73;;;15.87;;
69795;SDS011;57073;45.650;9.612;2023-09-18T14:24:38;25.87;;;15.57;;
69795;SDS011;57073;45.650;9.612;2023-09-18T14:29:38;28.10;;;15.67;;
69795;SDS011;57073;45.650;9.612;2023-09-18T14:34:38;27.73;;;15.97;;
69795;SDS011;57073;45.650;9.612;2023-09-18T14:39:39;29.73;;;16.98;;
69795;SDS011;57073;45.650;9.612;2023-09-18T14:44:39;27.47;;;15.03;;
69795;SDS011;57073;45.650;9.612;2023-09-18T14:49:44;33.13;;;16.47;;
69795;SDS011;57073;45.650;9.612;2023-09-18T14:54:46;32.08;;;16.13;;
69795;SDS011;57073;45.650;9.612;2023-09-18T14:59:46;27.83;;;15.43;;
69795;SDS011;57073;45.650;9.612;2023-09-18T15:04:49;27.58;;;14.55;;
69795;SDS011;57073;45.650;9.612;2023-09-18T15:09:50;29.27;;;15.77;;
69795;SDS011;57073;45.650;9.612;2023-09-18T15:14:50;28.50;;;15.53;;
69795;SDS011;57073;45.650;9.612;2023-09-18T15:19:51;30.40;;;14.60;;
69795;SDS011;57073;45.650;9.612;2023-09-18T15:24:55;28.30;;;13.77;;
69795;SDS011;57073;45.650;9.612;2023-09-18T15:29:55;30.83;;;13.13;;
69795;SDS011;57073;45.650;9.612;2023-09-18T15:34:56;26.33;;;13.57;;
69795;SDS011;57073;45.650;9.612;2023-09-18T15:39:56;26.43;;;14.97;;
69795;SDS011;57073;45.650;9.612;2023-09-18T15:44:56;28.07;;;15.47;;
69795;SDS011;57073;45.650;9.612;2023-09-18T15:49:57;27.80;;;15.70;;
69795;SDS011;57073;45.650;9.612;2023-09-18T15:54:58;27.13;;;16.23;;
69795;SDS011;57073;45.650;9.612;2023-09-18T16:00:02;27.87;;;15.23;;
69795;SDS011;57073;45.650;9.612;2023-09-18T16:05:08;26.77;;;16.00;;
69795;SDS011;57073;45.650;9.612;2023-09-18T16:10:08;30.27;;;15.03;;
69795;SDS011;57073;45.650;9.612;2023-09-18T16:15:09;28.97;;;15.33;;
69795;SDS011;57073;45.650;9.612;2023-09-18T16:20:10;29.83;;;15.55;;
69795;SDS011;57073;45.650;9.612;2023-09-18T16:25:11;30.63;;;15.33;;
69795;SDS011;57073;45.650;9.612;2023-09-18T16:30:11;32.80;;;16.57;;
69795;SDS011;57073;45.650;9.612;2023-09-18T16:35:12;40.13;;;19.20;;
69795;SDS011;57073;45.650;9.612;2023-09-18T16:40:13;33.03;;;16.93;;
69795;SDS011;57073;45.650;9.612;2023-09-18T16:45:13;33.05;;;17.33;;
69795;SDS011;57073;45.650;9.612;2023-09-18T16:50:14;36.53;;;19.40;;
69795;SDS011;57073;45.650;9.612;2023-09-18T16:55:15;26.23;;;13.17;;
69795;SDS011;57073;45.650;9.612;2023-09-18T17:00:15;13.23;;;6.70;;
69795;SDS011;57073;45.650;9.612;2023-09-18T17:05:16;8.68;;;4.30;;
69795;SDS011;57073;45.650;9.612;2023-09-18T17:10:16;13.33;;;4.90;;
69795;SDS011;57073;45.650;9.612;2023-09-18T17:15:17;6.80;;;2.90;;
69795;SDS011;57073;45.650;9.612;2023-09-18T17:20:18;5.57;;;2.75;;
69795;SDS011;57073;45.650;9.612;2023-09-18T17:25:18;7.87;;;2.50;;
69795;SDS011;57073;45.650;9.612;2023-09-18T17:30:19;5.57;;;2.20;;
69795;SDS011;57073;45.650;9.612;2023-09-18T17:35:19;11.63;;;5.07;;
69795;SDS011;57073;45.650;9.612;2023-09-18T17:40:20;5.83;;;2.80;;
69795;SDS011;57073;45.650;9.612;2023-09-18T17:45:20;7.20;;;2.67;;
69795;SDS011;57073;45.650;9.612;2023-09-18T17:50:20;7.47;;;2.42;;
69795;SDS011;57073;45.650;9.612;2023-09-18T17:55:21;4.03;;;1.40;;
69795;SDS011;57073;45.650;9.612;2023-09-18T18:00:21;4.07;;;1.97;;
69795;SDS011;57073;45.650;9.612;2023-09-18T18:05:22;5.27;;;2.03;;
69795;SDS011;57073;45.650;9.612;2023-09-18T18:10:23;4.60;;;1.90;;
69795;SDS011;57073;45.650;9.612;2023-09-18T18:15:23;7.23;;;2.00;;
69795;SDS011;57073;45.650;9.612;2023-09-18T18:20:24;4.67;;;1.80;;
69795;SDS011;57073;45.650;9.612;2023-09-18T18:25:24;9.70;;;2.47;;
69795;SDS011;57073;45.650;9.612;2023-09-18T18:30:25;7.20;;;2.47;;
69795;SDS011;57073;45.650;9.612;2023-09-18T18:35:25;5.97;;;2.47;;
69795;SDS011;57073;45.650;9.612;2023-09-18T18:40:25;4.70;;;2.20;;
69795;SDS011;57073;45.650;9.612;2023-09-18T18:45:27;8.27;;;2.40;;
69795;SDS011;57073;45.650;9.612;2023-09-18T18:50:27;6.60;;;2.53;;
69795;SDS011;57073;45.650;9.612;2023-09-18T18:55:29;4.80;;;2.58;;
69795;SDS011;57073;45.650;9.612;2023-09-18T19:00:29;8.53;;;2.70;;
69795;SDS011;57073;45.650;9.612;2023-09-18T19:05:30;6.13;;;2.87;;
69795;SDS011;57073;45.650;9.612;2023-09-18T19:10:30;8.00;;;2.87;;
69795;SDS011;57073;45.650;9.612;2023-09-18T19:15:31;7.00;;;2.30;;
69795;SDS011;57073;45.650;9.612;2023-09-18T19:20:31;6.10;;;2.20;;
69795;SDS011;57073;45.650;9.612;2023-09-18T19:25:32;4.37;;;2.40;;
69795;SDS011;57073;45.650;9.612;2023-09-18T19:30:32;4.60;;;1.90;;
69795;SDS011;57073;45.650;9.612;2023-09-18T19:35:32;4.67;;;2.00;;
69795;SDS011;57073;45.650;9.612;2023-09-18T19:40:33;5.17;;;2.30;;
69795;SDS011;57073;45.650;9.612;2023-09-18T19:45:33;5.10;;;2.33;;
69795;SDS011;57073;45.650;9.612;2023-09-18T19:50:35;3.25;;;2.10;;
69795;SDS011;57073;45.650;9.612;2023-09-18T19:55:35;4.70;;;2.67;;
69795;SDS011;57073;45.650;9.612;2023-09-18T20:00:36;3.63;;;1.90;;
69795;SDS011;57073;45.650;9.612;2023-09-18T20:05:37;4.27;;;1.70;;
69795;SDS011;57073;45.650;9.612;2023-09-18T20:10:37;4.80;;;1.60;;
69795;SDS011;57073;45.650;9.612;2023-09-18T20:15:37;4.63;;;1.90;;
69795;SDS011;57073;45.650;9.612;2023-09-18T20:20:38;6.97;;;1.80;;
69795;SDS011;57073;45.650;9.612;2023-09-18T20:25:38;3.90;;;2.00;;
69795;SDS011;57073;45.650;9.612;2023-09-18T20:30:38;4.20;;;1.90;;
69795;SDS011;57073;45.650;9.612;2023-09-18T20:35:39;4.77;;;1.80;;
69795;SDS011;57073;45.650;9.612;2023-09-18T20:40:39;6.53;;;2.93;;
69795;SDS011;57073;45.650;9.612;2023-09-18T20:45:41;5.75;;;2.17;;
69795;SDS011;57073;45.650;9.612;2023-09-18T20:50:42;3.87;;;2.00;;
69795;SDS011;57073;45.650;9.612;2023-09-18T20:55:42;6.03;;;3.10;;
69795;SDS011;57073;45.650;9.612;2023-09-18T21:00:43;5.50;;;3.33;;
69795;SDS011;57073;45.650;9.612;2023-09-18T21:05:44;9.00;;;3.60;;
69795;SDS011;57073;45.650;9.612;2023-09-18T21:10:44;6.80;;;3.50;;
69795;SDS011;57073;45.650;9.612;2023-09-18T21:15:45;9.53;;;3.70;;
69795;SDS011;57073;45.650;9.612;2023-09-18T21:20:47;5.97;;;3.90;;
69795;SDS011;57073;45.650;9.612;2023-09-18T21:25:48;7.83;;;4.23;;
69795;SDS011;57073;45.650;9.612;2023-09-18T21:30:50;9.00;;;4.55;;
69795;SDS011;57073;45.650;9.612;2023-09-18T21:35:50;8.53;;;4.47;;
69795;SDS011;57073;45.650;9.612;2023-09-18T21:40:51;7.13;;;4.07;;
69795;SDS011;57073;45.650;9.612;2023-09-18T21:45:52;10.00;;;4.30;;
69795;SDS011;57073;45.650;9.612;2023-09-18T21:50:52;9.60;;;4.20;;
69795;SDS011;57073;45.650;9.612;2023-09-18T21:55:53;5.30;;;3.60;;
69795;SDS011;57073;45.650;9.612;2023-09-18T22:00:55;7.25;;;3.10;;
69795;SDS011;57073;45.650;9.612;2023-09-18T22:06:00;5.77;;;3.43;;
69795;SDS011;57073;45.650;9.612;2023-09-18T22:11:00;7.90;;;3.10;;
69795;SDS011;57073;45.650;9.612;2023-09-18T22:16:01;5.37;;;2.60;;
69795;SDS011;57073;45.650;9.612;2023-09-18T22:21:03;6.87;;;2.67;;
69795;SDS011;57073;45.650;9.612;2023-09-18T22:26:03;5.80;;;2.67;;
69795;SDS011;57073;45.650;9.612;2023-09-18T22:31:04;6.07;;;2.90;;
69795;SDS011;57073;45.650;9.612;2023-09-18T22:36:04;6.73;;;2.67;;
69795;SDS011;57073;45.650;9.612;2023-09-18T22:57:23;5.35;;;2.67;;
69795;SDS011;57073;45.650;9.612;2023-09-18T23:02:28;6.47;;;2.80;;
69795;SDS011;57073;45.650;9.612;2023-09-18T23:07:29;8.02;;;2.72;;
69795;SDS011;57073;45.650;9.612;2023-09-18T23:12:32;6.27;;;2.93;;
69795;SDS011;57073;45.650;9.612;2023-09-18T23:17:34;4.90;;;2.60;;
69795;SDS011;57073;45.650;9.612;2023-09-18T23:22:35;6.90;;;3.03;;
69795;SDS011;57073;45.650;9.612;2023-09-18T23:27:40;7.63;;;3.37;;
69795;SDS011;57073;45.650;9.612;2023-09-18T23:32:41;7.47;;;2.65;;
69795;SDS011;57073;45.650;9.612;2023-09-18T23:37:42;5.20;;;2.73;;
69795;SDS011;57073;45.650;9.612;2023-09-18T23:42:43;5.45;;;2.80;;
69795;SDS011;57073;45.650;9.612;2023-09-18T23:47:47;5.83;;;2.80;;
69795;SDS011;57073;45.650;9.612;2023-09-18T23:52:47;7.33;;;3.40;;
69795;SDS011;57073;45.650;9.612;2023-09-18T23:57:54;12.20;;;3.67;;
